sensor_id;sensor_type;location;lat;lon;timestamp;P1;durP1;ratioP1;P2;durP2;ratioP2
9938;SDS011;5008;50.656;7.188;2023-03-15T05:01:50;10.27;;;5.63;;
9938;SDS011;5008;50.656;7.188;2023-03-15T05:04:17;8.63;;;5.40;;
9938;SDS011;5008;50.656;7.188;2023-03-15T05:06:44;9.13;;;6.57;;
9938;SDS011;5008;50.656;7.188;2023-03-15T05:09:11;10.73;;;6.23;;
9938;SDS011;5008;50.656;7.188;2023-03-15T05:11:43;10.87;;;6.03;;
9938;SDS011;5008;50.656;7.188;2023-03-15T05:14:12;7.87;;;6.10;;
9938;SDS011;5008;50.656;7.188;2023-03-15T05:16:39;9.90;;;6.13;;
9938;SDS011;5008;50.656;7.188;2023-03-15T05:19:08;7.00;;;5.43;;
9938;SDS011;5008;50.656;7.188;2023-03-15T05:21:36;8.63;;;6.17;;
9938;SDS011;5008;50.656;7.188;2023-03-15T05:24:05;7.27;;;5.47;;
9938;SDS011;5008;50.656;7.188;2023-03-15T05:26:33;6.07;;;5.47;;
9938;SDS011;5008;50.656;7.188;2023-03-15T05:29:02;8.93;;;6.27;;
9938;SDS011;5008;50.656;7.188;2023-03-15T05:31:33;11.90;;;6.20;;
9938;SDS011;5008;50.656;7.188;2023-03-15T05:34:01;10.00;;;5.97;;
9938;SDS011;5008;50.656;7.188;2023-03-15T05:36:29;8.97;;;5.63;;
9938;SDS011;5008;50.656;7.188;2023-03-15T05:38:56;6.30;;;3.93;;
9938;SDS011;5008;50.656;7.188;2023-03-15T05:41:23;4.17;;;3.13;;
9938;SDS011;5008;50.656;7.188;2023-03-15T05:43:50;4.50;;;2.80;;
9938;SDS011;5008;50.656;7.188;2023-03-15T05:46:17;2.53;;;2.33;;
9938;SDS011;5008;50.656;7.188;2023-03-15T05:51:42;4.37;;;2.30;;
9938;SDS011;5008;50.656;7.188;2023-03-15T05:54:09;2.23;;;1.90;;
9938;SDS011;5008;50.656;7.188;2023-03-15T05:56:41;2.27;;;1.40;;
9938;SDS011;5008;50.656;7.188;2023-03-15T05:59:13;1.87;;;1.40;;
9938;SDS011;5008;50.656;7.188;2023-03-15T06:01:44;1.40;;;1.30;;
9938;SDS011;5008;50.656;7.188;2023-03-15T06:04:24;2.77;;;1.30;;
9938;SDS011;5008;50.656;7.188;2023-03-15T06:07:00;1.13;;;1.03;;
9938;SDS011;5008;50.656;7.188;2023-03-15T06:12:42;1.03;;;0.90;;
9938;SDS011;5008;50.656;7.188;2023-03-15T06:15:14;1.00;;;0.80;;
9938;SDS011;5008;50.656;7.188;2023-03-15T06:20:58;2.13;;;1.30;;
9938;SDS011;5008;50.656;7.188;2023-03-15T06:29:24;1.30;;;1.20;;
9938;SDS011;5008;50.656;7.188;2023-03-15T06:32:06;1.73;;;1.33;;
9938;SDS011;5008;50.656;7.188;2023-03-15T06:37:28;2.03;;;1.83;;
9938;SDS011;5008;50.656;7.188;2023-03-15T06:42:46;1.83;;;1.73;;
9938;SDS011;5008;50.656;7.188;2023-03-15T06:45:13;2.60;;;1.53;;
9938;SDS011;5008;50.656;7.188;2023-03-15T06:47:43;2.70;;;1.97;;
9938;SDS011;5008;50.656;7.188;2023-03-15T06:50:13;1.67;;;1.57;;
9938;SDS011;5008;50.656;7.188;2023-03-15T06:52:40;1.50;;;1.40;;
9938;SDS011;5008;50.656;7.188;2023-03-15T06:55:14;2.30;;;2.10;;
9938;SDS011;5008;50.656;7.188;2023-03-15T06:57:43;2.20;;;2.00;;
9938;SDS011;5008;50.656;7.188;2023-03-15T07:00:11;2.10;;;1.90;;
9938;SDS011;5008;50.656;7.188;2023-03-15T07:02:43;2.30;;;2.10;;
9938;SDS011;5008;50.656;7.188;2023-03-15T07:05:10;2.80;;;2.33;;
9938;SDS011;5008;50.656;7.188;2023-03-15T07:07:37;2.33;;;2.13;;
9938;SDS011;5008;50.656;7.188;2023-03-15T07:10:04;2.50;;;2.30;;
9938;SDS011;5008;50.656;7.188;2023-03-15T07:12:32;2.40;;;2.20;;
9938;SDS011;5008;50.656;7.188;2023-03-15T07:15:06;2.70;;;2.50;;
9938;SDS011;5008;50.656;7.188;2023-03-15T07:17:34;2.60;;;2.40;;
9938;SDS011;5008;50.656;7.188;2023-03-15T07:20:02;3.20;;;2.90;;
9938;SDS011;5008;50.656;7.188;2023-03-15T07:22:30;3.20;;;2.90;;
9938;SDS011;5008;50.656;7.188;2023-03-15T07:24:58;4.10;;;3.70;;
9938;SDS011;5008;50.656;7.188;2023-03-15T07:27:26;3.17;;;2.97;;
9938;SDS011;5008;50.656;7.188;2023-03-15T07:30:21;3.47;;;3.23;;
9938;SDS011;5008;50.656;7.188;2023-03-15T07:33:03;3.80;;;3.50;;
9938;SDS011;5008;50.656;7.188;2023-03-15T07:35:31;3.97;;;3.60;;
9938;SDS011;5008;50.656;7.188;2023-03-15T07:37:58;3.97;;;3.60;;
9938;SDS011;5008;50.656;7.188;2023-03-15T07:40:35;4.47;;;4.07;;
9938;SDS011;5008;50.656;7.188;2023-03-15T07:43:02;5.00;;;4.60;;
9938;SDS011;5008;50.656;7.188;2023-03-15T07:45:31;5.60;;;5.10;;
9938;SDS011;5008;50.656;7.188;2023-03-15T07:47:59;5.60;;;5.10;;
9938;SDS011;5008;50.656;7.188;2023-03-15T07:50:26;6.60;;;5.90;;
9938;SDS011;5008;50.656;7.188;2023-03-15T07:52:53;6.43;;;5.80;;
9938;SDS011;5008;50.656;7.188;2023-03-15T07:55:20;6.13;;;5.57;;
9938;SDS011;5008;50.656;7.188;2023-03-15T07:57:47;5.70;;;5.20;;
9938;SDS011;5008;50.656;7.188;2023-03-15T08:00:14;8.40;;;6.50;;
9938;SDS011;5008;50.656;7.188;2023-03-15T08:02:43;7.37;;;6.43;;
9938;SDS011;5008;50.656;7.188;2023-03-15T08:08:26;6.53;;;5.93;;
9938;SDS011;5008;50.656;7.188;2023-03-15T08:14:02;6.77;;;6.17;;
9938;SDS011;5008;50.656;7.188;2023-03-15T08:16:29;6.87;;;6.07;;
9938;SDS011;5008;50.656;7.188;2023-03-15T08:18:57;7.90;;;7.13;;
9938;SDS011;5008;50.656;7.188;2023-03-15T08:21:24;7.77;;;6.87;;
9938;SDS011;5008;50.656;7.188;2023-03-15T08:23:51;7.70;;;6.33;;
9938;SDS011;5008;50.656;7.188;2023-03-15T08:26:22;8.00;;;7.20;;
9938;SDS011;5008;50.656;7.188;2023-03-15T08:28:48;9.03;;;8.13;;
9938;SDS011;5008;50.656;7.188;2023-03-15T08:31:15;10.07;;;9.00;;
9938;SDS011;5008;50.656;7.188;2023-03-15T08:33:42;10.80;;;9.80;;
9938;SDS011;5008;50.656;7.188;2023-03-15T08:36:16;10.73;;;9.73;;
9938;SDS011;5008;50.656;7.188;2023-03-15T08:38:43;10.07;;;9.07;;
9938;SDS011;5008;50.656;7.188;2023-03-15T08:41:10;11.03;;;9.87;;
9938;SDS011;5008;50.656;7.188;2023-03-15T08:43:37;12.73;;;10.97;;
9938;SDS011;5008;50.656;7.188;2023-03-15T08:46:04;10.67;;;9.67;;
9938;SDS011;5008;50.656;7.188;2023-03-15T08:48:46;11.83;;;10.63;;
9938;SDS011;5008;50.656;7.188;2023-03-15T08:51:13;11.90;;;10.80;;
9938;SDS011;5008;50.656;7.188;2023-03-15T08:53:41;11.47;;;10.33;;
9938;SDS011;5008;50.656;7.188;2023-03-15T08:56:08;11.93;;;10.73;;
9938;SDS011;5008;50.656;7.188;2023-03-15T08:58:34;13.57;;;11.80;;
9938;SDS011;5008;50.656;7.188;2023-03-15T09:01:01;13.00;;;11.33;;
9938;SDS011;5008;50.656;7.188;2023-03-15T09:03:29;12.40;;;11.10;;
9938;SDS011;5008;50.656;7.188;2023-03-15T09:05:57;13.93;;;11.73;;
9938;SDS011;5008;50.656;7.188;2023-03-15T09:08:26;13.73;;;11.10;;
9938;SDS011;5008;50.656;7.188;2023-03-15T09:10:54;12.23;;;11.03;;
9938;SDS011;5008;50.656;7.188;2023-03-15T09:13:22;11.60;;;10.50;;
9938;SDS011;5008;50.656;7.188;2023-03-15T09:15:51;12.30;;;11.13;;
9938;SDS011;5008;50.656;7.188;2023-03-15T09:18:19;12.00;;;10.80;;
9938;SDS011;5008;50.656;7.188;2023-03-15T09:20:46;14.47;;;12.87;;
9938;SDS011;5008;50.656;7.188;2023-03-15T09:23:14;13.83;;;12.33;;
9938;SDS011;5008;50.656;7.188;2023-03-15T09:25:41;12.47;;;11.13;;
9938;SDS011;5008;50.656;7.188;2023-03-15T09:28:09;9.77;;;8.87;;
9938;SDS011;5008;50.656;7.188;2023-03-15T09:30:37;7.07;;;6.37;;
9938;SDS011;5008;50.656;7.188;2023-03-15T09:33:04;9.73;;;8.73;;
9938;SDS011;5008;50.656;7.188;2023-03-15T09:35:31;11.83;;;10.60;;
9938;SDS011;5008;50.656;7.188;2023-03-15T09:40:50;10.07;;;9.03;;
9938;SDS011;5008;50.656;7.188;2023-03-15T09:43:30;10.43;;;9.33;;
9938;SDS011;5008;50.656;7.188;2023-03-15T09:46:28;10.80;;;9.70;;
9938;SDS011;5008;50.656;7.188;2023-03-15T09:48:59;11.63;;;9.93;;
9938;SDS011;5008;50.656;7.188;2023-03-15T09:51:32;10.67;;;9.67;;
9938;SDS011;5008;50.656;7.188;2023-03-15T09:54:07;10.97;;;9.87;;
9938;SDS011;5008;50.656;7.188;2023-03-15T09:56:38;11.20;;;9.67;;
9938;SDS011;5008;50.656;7.188;2023-03-15T09:59:11;10.80;;;9.70;;
9938;SDS011;5008;50.656;7.188;2023-03-15T10:01:40;10.93;;;9.93;;
9938;SDS011;5008;50.656;7.188;2023-03-15T10:04:09;11.27;;;10.23;;
9938;SDS011;5008;50.656;7.188;2023-03-15T10:06:52;11.30;;;10.20;;
9938;SDS011;5008;50.656;7.188;2023-03-15T10:09:21;12.17;;;10.30;;
9938;SDS011;5008;50.656;7.188;2023-03-15T10:11:55;10.87;;;9.77;;
9938;SDS011;5008;50.656;7.188;2023-03-15T10:14:29;10.43;;;9.43;;
9938;SDS011;5008;50.656;7.188;2023-03-15T10:17:10;10.93;;;9.77;;
9938;SDS011;5008;50.656;7.188;2023-03-15T10:19:43;9.70;;;8.80;;
9938;SDS011;5008;50.656;7.188;2023-03-15T10:22:18;10.77;;;9.60;;
9938;SDS011;5008;50.656;7.188;2023-03-15T10:24:50;10.47;;;9.37;;
9938;SDS011;5008;50.656;7.188;2023-03-15T10:27:22;10.40;;;9.40;;
9938;SDS011;5008;50.656;7.188;2023-03-15T10:29:54;11.67;;;9.37;;
9938;SDS011;5008;50.656;7.188;2023-03-15T10:32:23;10.47;;;9.17;;
9938;SDS011;5008;50.656;7.188;2023-03-15T10:34:54;10.77;;;9.73;;
9938;SDS011;5008;50.656;7.188;2023-03-15T10:37:22;9.40;;;8.40;;
9938;SDS011;5008;50.656;7.188;2023-03-15T10:39:52;8.83;;;8.03;;
9938;SDS011;5008;50.656;7.188;2023-03-15T10:42:23;8.97;;;8.07;;
9938;SDS011;5008;50.656;7.188;2023-03-15T10:44:51;10.73;;;8.40;;
9938;SDS011;5008;50.656;7.188;2023-03-15T10:47:29;9.17;;;7.43;;
9938;SDS011;5008;50.656;7.188;2023-03-15T10:49:56;8.83;;;7.93;;
9938;SDS011;5008;50.656;7.188;2023-03-15T10:52:28;9.47;;;7.63;;
9938;SDS011;5008;50.656;7.188;2023-03-15T10:54:59;9.73;;;8.27;;
9938;SDS011;5008;50.656;7.188;2023-03-15T10:57:29;10.10;;;7.50;;
9938;SDS011;5008;50.656;7.188;2023-03-15T11:00:03;9.03;;;7.17;;
9938;SDS011;5008;50.656;7.188;2023-03-15T11:02:47;8.10;;;7.17;;
9938;SDS011;5008;50.656;7.188;2023-03-15T11:05:25;8.43;;;7.03;;
9938;SDS011;5008;50.656;7.188;2023-03-15T11:07:57;7.13;;;6.53;;
9938;SDS011;5008;50.656;7.188;2023-03-15T11:10:26;7.93;;;7.17;;
9938;SDS011;5008;50.656;7.188;2023-03-15T11:13:12;7.83;;;6.40;;
9938;SDS011;5008;50.656;7.188;2023-03-15T11:15:52;7.67;;;5.93;;
9938;SDS011;5008;50.656;7.188;2023-03-15T11:18:30;9.37;;;6.50;;
9938;SDS011;5008;50.656;7.188;2023-03-15T11:20:59;7.07;;;6.33;;
9938;SDS011;5008;50.656;7.188;2023-03-15T11:23:31;8.70;;;6.63;;
9938;SDS011;5008;50.656;7.188;2023-03-15T11:26:00;8.13;;;7.03;;
9938;SDS011;5008;50.656;7.188;2023-03-15T11:28:28;8.73;;;5.60;;
9938;SDS011;5008;50.656;7.188;2023-03-15T11:30:59;6.93;;;5.63;;
9938;SDS011;5008;50.656;7.188;2023-03-15T11:33:31;6.80;;;4.53;;
9938;SDS011;5008;50.656;7.188;2023-03-15T11:36:04;5.83;;;4.67;;
9938;SDS011;5008;50.656;7.188;2023-03-15T11:38:36;5.63;;;4.87;;
9938;SDS011;5008;50.656;7.188;2023-03-15T11:41:10;6.10;;;5.50;;
9938;SDS011;5008;50.656;7.188;2023-03-15T11:43:49;7.20;;;4.03;;
9938;SDS011;5008;50.656;7.188;2023-03-15T11:46:26;4.30;;;3.60;;
9938;SDS011;5008;50.656;7.188;2023-03-15T11:48:58;5.30;;;3.50;;
9938;SDS011;5008;50.656;7.188;2023-03-15T11:51:31;4.87;;;4.13;;
9938;SDS011;5008;50.656;7.188;2023-03-15T11:54:08;6.00;;;4.00;;
9938;SDS011;5008;50.656;7.188;2023-03-15T11:56:51;6.17;;;5.53;;
9938;SDS011;5008;50.656;7.188;2023-03-15T11:59:20;4.90;;;3.77;;
9938;SDS011;5008;50.656;7.188;2023-03-15T12:01:53;9.67;;;6.13;;
9938;SDS011;5008;50.656;7.188;2023-03-15T12:10:28;7.13;;;4.00;;
9938;SDS011;5008;50.656;7.188;2023-03-15T12:12:58;3.17;;;2.80;;
9938;SDS011;5008;50.656;7.188;2023-03-15T12:15:45;3.40;;;3.10;;
9938;SDS011;5008;50.656;7.188;2023-03-15T12:18:16;4.03;;;3.20;;
9938;SDS011;5008;50.656;7.188;2023-03-15T12:20:55;3.50;;;3.20;;
9938;SDS011;5008;50.656;7.188;2023-03-15T12:23:33;4.10;;;3.63;;
9938;SDS011;5008;50.656;7.188;2023-03-15T12:26:05;4.37;;;3.60;;
9938;SDS011;5008;50.656;7.188;2023-03-15T12:28:35;7.13;;;4.33;;
9938;SDS011;5008;50.656;7.188;2023-03-15T12:31:04;4.23;;;3.83;;
9938;SDS011;5008;50.656;7.188;2023-03-15T12:33:42;4.40;;;3.80;;
9938;SDS011;5008;50.656;7.188;2023-03-15T12:36:15;7.77;;;3.80;;
9938;SDS011;5008;50.656;7.188;2023-03-15T12:38:53;5.07;;;3.83;;
9938;SDS011;5008;50.656;7.188;2023-03-15T12:41:36;6.03;;;3.63;;
9938;SDS011;5008;50.656;7.188;2023-03-15T12:44:17;5.53;;;3.67;;
9938;SDS011;5008;50.656;7.188;2023-03-15T12:46:52;5.57;;;3.23;;
9938;SDS011;5008;50.656;7.188;2023-03-15T12:49:38;3.55;;;3.25;;
9938;SDS011;5008;50.656;7.188;2023-03-15T12:52:27;4.82;;;3.15;;
9938;SDS011;5008;50.656;7.188;2023-03-15T12:55:09;3.15;;;2.72;;
9938;SDS011;5008;50.656;7.188;2023-03-15T12:57:44;4.47;;;2.53;;
9938;SDS011;5008;50.656;7.188;2023-03-15T13:00:16;4.95;;;2.50;;
9938;SDS011;5008;50.656;7.188;2023-03-15T13:02:46;2.83;;;2.50;;
9938;SDS011;5008;50.656;7.188;2023-03-15T13:05:18;3.70;;;2.42;;
9938;SDS011;5008;50.656;7.188;2023-03-15T13:07:51;2.72;;;2.50;;
9938;SDS011;5008;50.656;7.188;2023-03-15T13:13:48;3.63;;;2.78;;
9938;SDS011;5008;50.656;7.188;2023-03-15T13:16:32;4.47;;;2.75;;
9938;SDS011;5008;50.656;7.188;2023-03-15T13:19:05;4.53;;;3.35;;
9938;SDS011;5008;50.656;7.188;2023-03-15T13:21:49;4.40;;;2.80;;
9938;SDS011;5008;50.656;7.188;2023-03-15T13:24:26;2.78;;;2.15;;
9938;SDS011;5008;50.656;7.188;2023-03-15T13:27:02;3.95;;;2.80;;
9938;SDS011;5008;50.656;7.188;2023-03-15T13:29:35;4.32;;;2.83;;
9938;SDS011;5008;50.656;7.188;2023-03-15T13:32:07;4.18;;;2.80;;
9938;SDS011;5008;50.656;7.188;2023-03-15T13:34:38;5.90;;;3.33;;
9938;SDS011;5008;50.656;7.188;2023-03-15T13:37:13;3.88;;;2.83;;
9938;SDS011;5008;50.656;7.188;2023-03-15T13:39:51;3.95;;;2.20;;
9938;SDS011;5008;50.656;7.188;2023-03-15T13:42:22;3.42;;;2.20;;
9938;SDS011;5008;50.656;7.188;2023-03-15T13:45:05;4.05;;;2.47;;
9938;SDS011;5008;50.656;7.188;2023-03-15T13:47:38;5.70;;;2.38;;
9938;SDS011;5008;50.656;7.188;2023-03-15T13:50:06;2.78;;;2.17;;
9938;SDS011;5008;50.656;7.188;2023-03-15T13:52:46;2.08;;;1.83;;
9938;SDS011;5008;50.656;7.188;2023-03-15T13:55:14;2.92;;;1.80;;
9938;SDS011;5008;50.656;7.188;2023-03-15T13:57:45;2.58;;;2.20;;
9938;SDS011;5008;50.656;7.188;2023-03-15T14:00:21;2.50;;;1.90;;
9938;SDS011;5008;50.656;7.188;2023-03-15T14:02:49;1.85;;;1.70;;
9938;SDS011;5008;50.656;7.188;2023-03-15T14:05:19;3.35;;;1.88;;
9938;SDS011;5008;50.656;7.188;2023-03-15T14:07:55;3.38;;;2.38;;
9938;SDS011;5008;50.656;7.188;2023-03-15T14:10:27;2.80;;;1.92;;
9938;SDS011;5008;50.656;7.188;2023-03-15T14:12:56;4.00;;;2.05;;
9938;SDS011;5008;50.656;7.188;2023-03-15T14:15:25;3.00;;;1.77;;
9938;SDS011;5008;50.656;7.188;2023-03-15T14:18:01;2.50;;;1.70;;
9938;SDS011;5008;50.656;7.188;2023-03-15T14:20:30;2.03;;;1.83;;
9938;SDS011;5008;50.656;7.188;2023-03-15T14:23:04;2.35;;;2.00;;
9938;SDS011;5008;50.656;7.188;2023-03-15T14:25:35;2.28;;;2.08;;
9938;SDS011;5008;50.656;7.188;2023-03-15T14:28:02;2.40;;;1.90;;
9938;SDS011;5008;50.656;7.188;2023-03-15T14:30:31;6.38;;;2.35;;
9938;SDS011;5008;50.656;7.188;2023-03-15T14:33:01;3.72;;;2.03;;
9938;SDS011;5008;50.656;7.188;2023-03-15T14:35:32;3.25;;;2.00;;
9938;SDS011;5008;50.656;7.188;2023-03-15T14:38:14;2.70;;;2.25;;
9938;SDS011;5008;50.656;7.188;2023-03-15T14:40:43;2.67;;;2.17;;
9938;SDS011;5008;50.656;7.188;2023-03-15T14:43:10;2.30;;;1.70;;
9938;SDS011;5008;50.656;7.188;2023-03-15T14:45:38;3.20;;;2.03;;
9938;SDS011;5008;50.656;7.188;2023-03-15T14:48:09;4.95;;;2.42;;
9938;SDS011;5008;50.656;7.188;2023-03-15T14:50:39;3.20;;;1.70;;
9938;SDS011;5008;50.656;7.188;2023-03-15T14:53:11;1.30;;;1.20;;
9938;SDS011;5008;50.656;7.188;2023-03-15T14:55:41;2.10;;;1.23;;
9938;SDS011;5008;50.656;7.188;2023-03-15T14:58:09;1.50;;;1.40;;
9938;SDS011;5008;50.656;7.188;2023-03-15T15:00:38;1.60;;;1.50;;
9938;SDS011;5008;50.656;7.188;2023-03-15T15:03:06;2.80;;;1.40;;
9938;SDS011;5008;50.656;7.188;2023-03-15T15:05:38;1.98;;;1.60;;
9938;SDS011;5008;50.656;7.188;2023-03-15T15:08:09;1.83;;;1.40;;
9938;SDS011;5008;50.656;7.188;2023-03-15T15:10:38;2.03;;;1.42;;
9938;SDS011;5008;50.656;7.188;2023-03-15T15:13:05;1.50;;;1.40;;
9938;SDS011;5008;50.656;7.188;2023-03-15T15:15:32;2.85;;;1.90;;
9938;SDS011;5008;50.656;7.188;2023-03-15T15:18:00;4.50;;;1.90;;
9938;SDS011;5008;50.656;7.188;2023-03-15T15:20:27;2.00;;;1.30;;
9938;SDS011;5008;50.656;7.188;2023-03-15T15:22:54;1.98;;;1.45;;
9938;SDS011;5008;50.656;7.188;2023-03-15T15:25:23;1.42;;;1.13;;
9938;SDS011;5008;50.656;7.188;2023-03-15T15:27:52;1.60;;;1.50;;
9938;SDS011;5008;50.656;7.188;2023-03-15T15:30:20;2.85;;;1.50;;
9938;SDS011;5008;50.656;7.188;2023-03-15T15:32:47;2.90;;;1.50;;
9938;SDS011;5008;50.656;7.188;2023-03-15T15:35:16;3.88;;;1.70;;
9938;SDS011;5008;50.656;7.188;2023-03-15T15:37:44;2.58;;;1.80;;
9938;SDS011;5008;50.656;7.188;2023-03-15T15:40:14;2.22;;;1.27;;
9938;SDS011;5008;50.656;7.188;2023-03-15T15:42:44;1.97;;;1.50;;
9938;SDS011;5008;50.656;7.188;2023-03-15T15:45:28;1.92;;;1.50;;
9938;SDS011;5008;50.656;7.188;2023-03-15T15:47:58;1.90;;;1.20;;
9938;SDS011;5008;50.656;7.188;2023-03-15T15:50:30;1.33;;;1.00;;
9938;SDS011;5008;50.656;7.188;2023-03-15T15:52:58;1.67;;;1.27;;
9938;SDS011;5008;50.656;7.188;2023-03-15T15:55:28;1.87;;;1.40;;
9938;SDS011;5008;50.656;7.188;2023-03-15T15:57:57;4.10;;;1.40;;
9938;SDS011;5008;50.656;7.188;2023-03-15T16:00:25;3.63;;;1.43;;
9938;SDS011;5008;50.656;7.188;2023-03-15T16:02:55;3.30;;;1.60;;
9938;SDS011;5008;50.656;7.188;2023-03-15T16:05:23;1.50;;;1.13;;
9938;SDS011;5008;50.656;7.188;2023-03-15T16:07:52;3.17;;;1.43;;
9938;SDS011;5008;50.656;7.188;2023-03-15T16:10:23;1.93;;;1.33;;
9938;SDS011;5008;50.656;7.188;2023-03-15T16:12:54;2.03;;;1.20;;
9938;SDS011;5008;50.656;7.188;2023-03-15T16:15:21;1.73;;;1.20;;
9938;SDS011;5008;50.656;7.188;2023-03-15T16:17:48;9.77;;;2.37;;
9938;SDS011;5008;50.656;7.188;2023-03-15T16:20:17;2.17;;;1.47;;
9938;SDS011;5008;50.656;7.188;2023-03-15T16:22:45;2.23;;;1.10;;
9938;SDS011;5008;50.656;7.188;2023-03-15T16:25:14;2.30;;;1.40;;
9938;SDS011;5008;50.656;7.188;2023-03-15T16:27:47;2.30;;;1.20;;
9938;SDS011;5008;50.656;7.188;2023-03-15T16:30:18;3.13;;;1.50;;
9938;SDS011;5008;50.656;7.188;2023-03-15T16:32:45;2.63;;;1.53;;
9938;SDS011;5008;50.656;7.188;2023-03-15T16:35:13;2.70;;;1.50;;
9938;SDS011;5008;50.656;7.188;2023-03-15T16:37:41;2.40;;;1.43;;
9938;SDS011;5008;50.656;7.188;2023-03-15T16:40:12;2.53;;;1.67;;
9938;SDS011;5008;50.656;7.188;2023-03-15T16:42:45;3.43;;;1.33;;
9938;SDS011;5008;50.656;7.188;2023-03-15T16:45:13;2.20;;;1.43;;
9938;SDS011;5008;50.656;7.188;2023-03-15T16:47:40;2.77;;;1.50;;
9938;SDS011;5008;50.656;7.188;2023-03-15T16:50:07;3.27;;;1.50;;
9938;SDS011;5008;50.656;7.188;2023-03-15T16:52:35;2.77;;;1.60;;
9938;SDS011;5008;50.656;7.188;2023-03-15T16:55:04;2.93;;;1.50;;
9938;SDS011;5008;50.656;7.188;2023-03-15T16:57:31;2.80;;;1.70;;
9938;SDS011;5008;50.656;7.188;2023-03-15T16:59:58;1.90;;;1.30;;
9938;SDS011;5008;50.656;7.188;2023-03-15T17:02:25;2.07;;;1.40;;
9938;SDS011;5008;50.656;7.188;2023-03-15T17:04:53;3.30;;;1.10;;
9938;SDS011;5008;50.656;7.188;2023-03-15T17:07:21;3.67;;;1.63;;
9938;SDS011;5008;50.656;7.188;2023-03-15T17:09:53;2.93;;;1.40;;
9938;SDS011;5008;50.656;7.188;2023-03-15T17:12:23;2.17;;;1.73;;
9938;SDS011;5008;50.656;7.188;2023-03-15T17:14:52;5.43;;;2.00;;
9938;SDS011;5008;50.656;7.188;2023-03-15T17:17:21;2.87;;;1.80;;
9938;SDS011;5008;50.656;7.188;2023-03-15T17:19:51;3.47;;;1.60;;
9938;SDS011;5008;50.656;7.188;2023-03-15T17:22:18;2.80;;;1.60;;
9938;SDS011;5008;50.656;7.188;2023-03-15T17:24:46;2.00;;;1.43;;
9938;SDS011;5008;50.656;7.188;2023-03-15T17:27:15;2.80;;;1.50;;
9938;SDS011;5008;50.656;7.188;2023-03-15T17:29:48;2.20;;;1.63;;
9938;SDS011;5008;50.656;7.188;2023-03-15T17:32:15;2.70;;;2.07;;
9938;SDS011;5008;50.656;7.188;2023-03-15T17:34:42;4.83;;;1.90;;
9938;SDS011;5008;50.656;7.188;2023-03-15T17:37:11;2.73;;;2.00;;
9938;SDS011;5008;50.656;7.188;2023-03-15T17:39:38;2.10;;;1.90;;
9938;SDS011;5008;50.656;7.188;2023-03-15T17:42:05;4.23;;;1.90;;
9938;SDS011;5008;50.656;7.188;2023-03-15T17:44:34;2.80;;;1.90;;
9938;SDS011;5008;50.656;7.188;2023-03-15T17:47:02;3.20;;;2.30;;
9938;SDS011;5008;50.656;7.188;2023-03-15T17:49:30;3.33;;;2.30;;
9938;SDS011;5008;50.656;7.188;2023-03-15T17:51:56;3.17;;;2.53;;
9938;SDS011;5008;50.656;7.188;2023-03-15T17:54:23;3.63;;;3.10;;
9938;SDS011;5008;50.656;7.188;2023-03-15T17:56:50;4.97;;;3.20;;
9938;SDS011;5008;50.656;7.188;2023-03-15T17:59:17;4.63;;;3.17;;
9938;SDS011;5008;50.656;7.188;2023-03-15T18:01:44;4.10;;;2.60;;
9938;SDS011;5008;50.656;7.188;2023-03-15T18:04:14;5.40;;;2.87;;
9938;SDS011;5008;50.656;7.188;2023-03-15T18:06:42;4.50;;;3.13;;
9938;SDS011;5008;50.656;7.188;2023-03-15T18:09:09;6.30;;;4.03;;
9938;SDS011;5008;50.656;7.188;2023-03-15T18:11:37;5.63;;;4.50;;
9938;SDS011;5008;50.656;7.188;2023-03-15T18:14:09;6.67;;;4.30;;
9938;SDS011;5008;50.656;7.188;2023-03-15T18:16:37;6.60;;;4.33;;
9938;SDS011;5008;50.656;7.188;2023-03-15T18:19:06;7.87;;;4.23;;
9938;SDS011;5008;50.656;7.188;2023-03-15T18:21:34;6.00;;;4.30;;
9938;SDS011;5008;50.656;7.188;2023-03-15T18:24:01;6.83;;;4.33;;
9938;SDS011;5008;50.656;7.188;2023-03-15T18:26:28;6.90;;;4.50;;
9938;SDS011;5008;50.656;7.188;2023-03-15T18:28:55;5.70;;;4.33;;
9938;SDS011;5008;50.656;7.188;2023-03-15T18:31:23;5.47;;;4.37;;
9938;SDS011;5008;50.656;7.188;2023-03-15T18:33:51;7.73;;;5.10;;
9938;SDS011;5008;50.656;7.188;2023-03-15T18:36:18;7.90;;;4.90;;
9938;SDS011;5008;50.656;7.188;2023-03-15T18:38:47;6.83;;;4.73;;
9938;SDS011;5008;50.656;7.188;2023-03-15T18:41:15;6.20;;;3.93;;
9938;SDS011;5008;50.656;7.188;2023-03-15T18:43:43;7.70;;;4.60;;
9938;SDS011;5008;50.656;7.188;2023-03-15T18:46:14;6.80;;;4.90;;
9938;SDS011;5008;50.656;7.188;2023-03-15T18:48:42;5.57;;;4.50;;
9938;SDS011;5008;50.656;7.188;2023-03-15T18:51:09;5.67;;;4.33;;
9938;SDS011;5008;50.656;7.188;2023-03-15T18:53:37;5.93;;;3.90;;
9938;SDS011;5008;50.656;7.188;2023-03-15T18:56:06;4.70;;;4.20;;
9938;SDS011;5008;50.656;7.188;2023-03-15T18:58:37;6.53;;;4.57;;
9938;SDS011;5008;50.656;7.188;2023-03-15T19:01:05;4.53;;;4.13;;
9938;SDS011;5008;50.656;7.188;2023-03-15T19:03:32;7.27;;;5.87;;
9938;SDS011;5008;50.656;7.188;2023-03-15T19:06:01;6.17;;;5.23;;
9938;SDS011;5008;50.656;7.188;2023-03-15T19:08:28;5.37;;;4.47;;
9938;SDS011;5008;50.656;7.188;2023-03-15T19:10:58;6.93;;;5.50;;
9938;SDS011;5008;50.656;7.188;2023-03-15T19:13:27;7.97;;;5.67;;
9938;SDS011;5008;50.656;7.188;2023-03-15T19:15:55;7.20;;;5.40;;
9938;SDS011;5008;50.656;7.188;2023-03-15T19:18:22;8.80;;;6.13;;
9938;SDS011;5008;50.656;7.188;2023-03-15T19:20:50;6.73;;;4.93;;
9938;SDS011;5008;50.656;7.188;2023-03-15T19:23:17;5.97;;;5.03;;
9938;SDS011;5008;50.656;7.188;2023-03-15T19:25:44;8.83;;;5.87;;
9938;SDS011;5008;50.656;7.188;2023-03-15T19:28:12;8.03;;;6.10;;
9938;SDS011;5008;50.656;7.188;2023-03-15T19:30:42;10.10;;;6.17;;
9938;SDS011;5008;50.656;7.188;2023-03-15T19:33:09;9.50;;;6.40;;
9938;SDS011;5008;50.656;7.188;2023-03-15T19:35:36;15.03;;;9.47;;
9938;SDS011;5008;50.656;7.188;2023-03-15T19:38:02;15.03;;;9.30;;
9938;SDS011;5008;50.656;7.188;2023-03-15T19:40:29;9.47;;;7.33;;
9938;SDS011;5008;50.656;7.188;2023-03-15T19:42:56;7.93;;;6.57;;
9938;SDS011;5008;50.656;7.188;2023-03-15T19:45:23;9.90;;;7.30;;
9938;SDS011;5008;50.656;7.188;2023-03-15T19:47:51;8.90;;;7.70;;
9938;SDS011;5008;50.656;7.188;2023-03-15T19:50:18;10.57;;;8.00;;
9938;SDS011;5008;50.656;7.188;2023-03-15T19:52:45;11.40;;;8.50;;
9938;SDS011;5008;50.656;7.188;2023-03-15T19:55:12;10.47;;;7.87;;
9938;SDS011;5008;50.656;7.188;2023-03-15T19:57:40;8.50;;;7.37;;
9938;SDS011;5008;50.656;7.188;2023-03-15T20:00:10;13.03;;;8.80;;
9938;SDS011;5008;50.656;7.188;2023-03-15T20:02:40;13.07;;;8.80;;
9938;SDS011;5008;50.656;7.188;2023-03-15T20:05:09;11.93;;;9.40;;
9938;SDS011;5008;50.656;7.188;2023-03-15T20:07:37;10.53;;;8.63;;
9938;SDS011;5008;50.656;7.188;2023-03-15T20:10:07;9.57;;;7.03;;
9938;SDS011;5008;50.656;7.188;2023-03-15T20:12:35;8.80;;;7.40;;
9938;SDS011;5008;50.656;7.188;2023-03-15T20:15:03;11.97;;;8.73;;
9938;SDS011;5008;50.656;7.188;2023-03-15T20:17:33;8.50;;;7.50;;
9938;SDS011;5008;50.656;7.188;2023-03-15T20:20:01;9.23;;;8.10;;
9938;SDS011;5008;50.656;7.188;2023-03-15T20:22:31;8.60;;;7.70;;
9938;SDS011;5008;50.656;7.188;2023-03-15T20:24:58;9.40;;;6.77;;
9938;SDS011;5008;50.656;7.188;2023-03-15T20:27:25;8.80;;;7.43;;
9938;SDS011;5008;50.656;7.188;2023-03-15T20:29:52;9.90;;;7.73;;
9938;SDS011;5008;50.656;7.188;2023-03-15T20:32:21;10.60;;;7.63;;
9938;SDS011;5008;50.656;7.188;2023-03-15T20:34:48;11.77;;;8.80;;
9938;SDS011;5008;50.656;7.188;2023-03-15T20:37:21;10.30;;;8.83;;
9938;SDS011;5008;50.656;7.188;2023-03-15T20:39:50;8.87;;;7.37;;
9938;SDS011;5008;50.656;7.188;2023-03-15T20:42:17;8.43;;;7.53;;
9938;SDS011;5008;50.656;7.188;2023-03-15T20:44:45;8.00;;;6.43;;
9938;SDS011;5008;50.656;7.188;2023-03-15T20:47:12;7.03;;;5.70;;
9938;SDS011;5008;50.656;7.188;2023-03-15T20:49:39;7.07;;;5.97;;
9938;SDS011;5008;50.656;7.188;2023-03-15T20:52:06;6.40;;;5.73;;
9938;SDS011;5008;50.656;7.188;2023-03-15T20:54:33;7.73;;;5.97;;
9938;SDS011;5008;50.656;7.188;2023-03-15T20:57:05;5.60;;;5.00;;
9938;SDS011;5008;50.656;7.188;2023-03-15T20:59:32;6.57;;;5.70;;
9938;SDS011;5008;50.656;7.188;2023-03-15T21:02:13;6.50;;;5.90;;
9938;SDS011;5008;50.656;7.188;2023-03-15T21:04:40;8.57;;;6.43;;
9938;SDS011;5008;50.656;7.188;2023-03-15T21:07:08;6.97;;;6.30;;
9938;SDS011;5008;50.656;7.188;2023-03-15T21:09:35;7.10;;;5.83;;
9938;SDS011;5008;50.656;7.188;2023-03-15T21:12:02;6.53;;;5.60;;